sensor_id;sensor_type;location;lat;lon;timestamp;pressure;altitude;pressure_sealevel;temperature;humidity
76011;BME280;64701;43.536;1.478;2023-06-22T00:01:10;99231.56;;;22.23;92.36
76011;BME280;64701;43.536;1.478;2023-06-22T00:03:35;99245.34;;;22.22;92.41
76011;BME280;64701;43.536;1.478;2023-06-22T00:06:01;99260.44;;;22.18;93.22
76011;BME280;64701;43.536;1.478;2023-06-22T00:08:26;99275.81;;;22.17;92.67
76011;BME280;64701;43.536;1.478;2023-06-22T00:10:51;99275.31;;;22.15;93.41
76011;BME280;64701;43.536;1.478;2023-06-22T00:13:17;99267.22;;;22.10;94.57
76011;BME280;64701;43.536;1.478;2023-06-22T00:15:42;99252.91;;;22.05;95.83
76011;BME280;64701;43.536;1.478;2023-06-22T00:18:08;99249.44;;;22.04;95.55
76011;BME280;64701;43.536;1.478;2023-06-22T00:20:34;99251.03;;;22.05;95.07
76011;BME280;64701;43.536;1.478;2023-06-22T00:23:02;99252.94;;;21.99;96.23
76011;BME280;64701;43.536;1.478;2023-06-22T00:25:33;99265.59;;;21.94;96.85
76011;BME280;64701;43.536;1.478;2023-06-22T00:27:58;99278.84;;;21.95;95.56
76011;BME280;64701;43.536;1.478;2023-06-22T00:30:23;99293.91;;;21.91;96.21
76011;BME280;64701;43.536;1.478;2023-06-22T00:32:49;99303.88;;;21.91;95.86
76011;BME280;64701;43.536;1.478;2023-06-22T00:35:14;99310.91;;;21.92;96.11
76011;BME280;64701;43.536;1.478;2023-06-22T00:37:39;99309.81;;;21.83;97.48
76011;BME280;64701;43.536;1.478;2023-06-22T00:40:08;99300.09;;;21.82;97.87
76011;BME280;64701;43.536;1.478;2023-06-22T00:42:36;99302.81;;;21.77;98.18
76011;BME280;64701;43.536;1.478;2023-06-22T00:45:01;99326.53;;;21.80;96.97
76011;BME280;64701;43.536;1.478;2023-06-22T00:47:27;99328.94;;;21.81;97.29
76011;BME280;64701;43.536;1.478;2023-06-22T00:49:52;99334.06;;;21.83;97.54
76011;BME280;64701;43.536;1.478;2023-06-22T00:52:19;99337.31;;;21.85;96.72
76011;BME280;64701;43.536;1.478;2023-06-22T00:54:46;99333.00;;;21.89;95.83
76011;BME280;64701;43.536;1.478;2023-06-22T00:57:14;99342.16;;;21.93;96.31
76011;BME280;64701;43.536;1.478;2023-06-22T00:59:44;99338.97;;;21.96;96.25
76011;BME280;64701;43.536;1.478;2023-06-22T01:02:09;99338.41;;;21.99;95.55
76011;BME280;64701;43.536;1.478;2023-06-22T01:04:35;99345.41;;;22.00;95.87
76011;BME280;64701;43.536;1.478;2023-06-22T01:09:31;99356.75;;;22.02;96.27
76011;BME280;64701;43.536;1.478;2023-06-22T01:12:00;99356.75;;;22.02;95.84
76011;BME280;64701;43.536;1.478;2023-06-22T01:14:50;99352.44;;;22.01;96.52
76011;BME280;64701;43.536;1.478;2023-06-22T01:17:12;99349.19;;;21.99;95.80
76011;BME280;64701;43.536;1.478;2023-06-22T01:19:45;99368.03;;;21.94;96.42
76011;BME280;64701;43.536;1.478;2023-06-22T01:22:15;99368.28;;;21.87;95.77
76011;BME280;64701;43.536;1.478;2023-06-22T01:29:51;99389.56;;;21.64;96.56
76011;BME280;64701;43.536;1.478;2023-06-22T01:32:17;99389.56;;;21.58;95.84
76011;BME280;64701;43.536;1.478;2023-06-22T01:34:43;99397.63;;;21.48;95.75
76011;BME280;64701;43.536;1.478;2023-06-22T01:37:09;99400.00;;;21.40;94.96
76011;BME280;64701;43.536;1.478;2023-06-22T01:39:35;99402.16;;;21.33;94.99
76011;BME280;64701;43.536;1.478;2023-06-22T01:42:00;99402.94;;;21.28;95.08
76011;BME280;64701;43.536;1.478;2023-06-22T01:44:27;99400.22;;;21.23;95.18
76011;BME280;64701;43.536;1.478;2023-06-22T01:46:53;99403.13;;;21.11;95.57
76011;BME280;64701;43.536;1.478;2023-06-22T01:49:18;99399.34;;;21.07;96.11
76011;BME280;64701;43.536;1.478;2023-06-22T01:51:44;99404.72;;;21.07;95.13
76011;BME280;64701;43.536;1.478;2023-06-22T01:54:09;99399.59;;;21.06;95.38
76011;BME280;64701;43.536;1.478;2023-06-22T01:56:34;99392.84;;;21.03;94.78
76011;BME280;64701;43.536;1.478;2023-06-22T02:01:47;99407.38;;;20.97;94.96
76011;BME280;64701;43.536;1.478;2023-06-22T02:04:19;99429.69;;;20.98;95.13
76011;BME280;64701;43.536;1.478;2023-06-22T02:06:45;99428.34;;;20.95;95.03
76011;BME280;64701;43.536;1.478;2023-06-22T02:09:14;99433.44;;;20.92;95.61
76011;BME280;64701;43.536;1.478;2023-06-22T02:11:41;99438.31;;;20.95;95.30
76011;BME280;64701;43.536;1.478;2023-06-22T02:14:07;99434.81;;;20.94;94.92
76011;BME280;64701;43.536;1.478;2023-06-22T02:16:33;99438.31;;;20.95;94.28
76011;BME280;64701;43.536;1.478;2023-06-22T02:18:59;99438.25;;;20.85;94.81
76011;BME280;64701;43.536;1.478;2023-06-22T02:21:28;99428.31;;;20.85;94.16
76011;BME280;64701;43.536;1.478;2023-06-22T02:23:53;99433.63;;;20.80;94.55
76011;BME280;64701;43.536;1.478;2023-06-22T02:26:18;99437.66;;;20.72;94.91
76011;BME280;64701;43.536;1.478;2023-06-22T02:28:44;99434.13;;;20.67;95.14
76011;BME280;64701;43.536;1.478;2023-06-22T02:31:09;99447.28;;;20.68;94.94
76011;BME280;64701;43.536;1.478;2023-06-22T02:33:35;99450.78;;;20.64;94.69
76011;BME280;64701;43.536;1.478;2023-06-22T02:36:00;99452.41;;;20.65;94.66
76011;BME280;64701;43.536;1.478;2023-06-22T02:38:29;99458.59;;;20.65;94.24
76011;BME280;64701;43.536;1.478;2023-06-22T02:40:59;99463.91;;;20.55;95.31
76011;BME280;64701;43.536;1.478;2023-06-22T02:43:24;99471.09;;;20.50;95.19
76011;BME280;64701;43.536;1.478;2023-06-22T02:45:50;99466.53;;;20.50;94.59
76011;BME280;64701;43.536;1.478;2023-06-22T02:48:15;99472.44;;;20.47;94.64
76011;BME280;64701;43.536;1.478;2023-06-22T02:50:40;99460.03;;;20.41;95.30
76011;BME280;64701;43.536;1.478;2023-06-22T02:53:05;99463.75;;;20.35;95.78
76011;BME280;64701;43.536;1.478;2023-06-22T02:55:31;99450.72;;;20.27;96.36
76011;BME280;64701;43.536;1.478;2023-06-22T02:57:56;99450.19;;;20.25;96.21
76011;BME280;64701;43.536;1.478;2023-06-22T03:00:22;99455.00;;;20.23;96.27
76011;BME280;64701;43.536;1.478;2023-06-22T03:02:48;99454.47;;;20.26;95.72
76011;BME280;64701;43.536;1.478;2023-06-22T03:05:14;99453.97;;;20.29;95.11
76011;BME280;64701;43.536;1.478;2023-06-22T03:07:43;99463.41;;;20.31;95.08
76011;BME280;64701;43.536;1.478;2023-06-22T03:10:09;99460.97;;;20.30;95.55
76011;BME280;64701;43.536;1.478;2023-06-22T03:12:34;99445.06;;;20.23;96.51
76011;BME280;64701;43.536;1.478;2023-06-22T03:15:00;99441.81;;;20.21;96.63
76011;BME280;64701;43.536;1.478;2023-06-22T03:17:25;99458.94;;;20.15;97.71
76011;BME280;64701;43.536;1.478;2023-06-22T03:19:50;99473.16;;;20.11;97.75
76011;BME280;64701;43.536;1.478;2023-06-22T03:22:15;99478.53;;;20.11;97.12
76011;BME280;64701;43.536;1.478;2023-06-22T03:24:41;99477.22;;;20.13;96.96
76011;BME280;64701;43.536;1.478;2023-06-22T03:27:06;99485.22;;;20.08;97.98
76011;BME280;64701;43.536;1.478;2023-06-22T03:29:31;99487.19;;;20.13;97.31
76011;BME280;64701;43.536;1.478;2023-06-22T03:31:57;99494.19;;;20.14;97.75
76011;BME280;64701;43.536;1.478;2023-06-22T03:34:22;99494.72;;;20.16;97.65
76011;BME280;64701;43.536;1.478;2023-06-22T03:36:47;99489.09;;;20.17;97.39
76011;BME280;64701;43.536;1.478;2023-06-22T03:39:12;99486.66;;;20.16;98.64
76011;BME280;64701;43.536;1.478;2023-06-22T03:41:38;99479.66;;;20.15;99.09
76011;BME280;64701;43.536;1.478;2023-06-22T03:44:04;99480.16;;;20.12;99.31
76011;BME280;64701;43.536;1.478;2023-06-22T03:46:29;99474.47;;;20.08;100.00
76011;BME280;64701;43.536;1.478;2023-06-22T03:48:54;99468.81;;;20.05;100.00
76011;BME280;64701;43.536;1.478;2023-06-22T03:51:19;99469.88;;;20.04;100.00
76011;BME280;64701;43.536;1.478;2023-06-22T03:53:45;99458.59;;;20.02;100.00
76011;BME280;64701;43.536;1.478;2023-06-22T03:56:10;99464.44;;;19.98;100.00
76011;BME280;64701;43.536;1.478;2023-06-22T03:58:35;99473.91;;;20.01;100.00
76011;BME280;64701;43.536;1.478;2023-06-22T04:01:02;99473.91;;;20.01;100.00
76011;BME280;64701;43.536;1.478;2023-06-22T04:03:27;99465.88;;;20.06;100.00
76011;BME280;64701;43.536;1.478;2023-06-22T04:05:52;99460.50;;;20.06;100.00
76011;BME280;64701;43.536;1.478;2023-06-22T04:08:18;99456.94;;;20.01;100.00
76011;BME280;64701;43.536;1.478;2023-06-22T04:10:43;99455.06;;;20.01;100.00
76011;BME280;64701;43.536;1.478;2023-06-22T04:13:08;99464.75;;;20.02;100.00
76011;BME280;64701;43.536;1.478;2023-06-22T04:15:34;99466.38;;;20.03;100.00
76011;BME280;64701;43.536;1.478;2023-06-22T04:17:59;99454.06;;;20.07;100.00
76011;BME280;64701;43.536;1.478;2023-06-22T04:20:24;99465.34;;;20.09;100.00
76011;BME280;64701;43.536;1.478;2023-06-22T04:22:53;99469.09;;;20.08;100.00
76011;BME280;64701;43.536;1.478;2023-06-22T04:25:18;99466.16;;;20.10;100.00
76011;BME280;64701;43.536;1.478;2023-06-22T04:27:44;99476.44;;;20.13;100.00
76011;BME280;64701;43.536;1.478;2023-06-22T04:30:10;99482.41;;;20.20;100.00
76011;BME280;64701;43.536;1.478;2023-06-22T04:32:35;99489.69;;;20.24;100.00
76011;BME280;64701;43.536;1.478;2023-06-22T04:35:01;99491.31;;;20.25;100.00
76011;BME280;64701;43.536;1.478;2023-06-22T04:37:27;99494.28;;;20.24;100.00
76011;BME280;64701;43.536;1.478;2023-06-22T04:39:52;99505.50;;;20.21;100.00
76011;BME280;64701;43.536;1.478;2023-06-22T04:42:18;99530.81;;;20.20;100.00
76011;BME280;64701;43.536;1.478;2023-06-22T04:44:43;99533.13;;;20.11;100.00
76011;BME280;64701;43.536;1.478;2023-06-22T04:47:08;99536.06;;;20.10;100.00
76011;BME280;64701;43.536;1.478;2023-06-22T04:49:34;99534.94;;;20.06;100.00
76011;BME280;64701;43.536;1.478;2023-06-22T04:52:06;99526.13;;;20.10;100.00
76011;BME280;64701;43.536;1.478;2023-06-22T04:54:32;99536.88;;;20.10;100.00
76011;BME280;64701;43.536;1.478;2023-06-22T04:57:01;99546.00;;;20.09;100.00
76011;BME280;64701;43.536;1.478;2023-06-22T04:59:27;99539.81;;;20.09;100.00
76011;BME280;64701;43.536;1.478;2023-06-22T05:01:58;99538.22;;;20.08;100.00
76011;BME280;64701;43.536;1.478;2023-06-22T05:04:24;99536.56;;;20.07;100.00
76011;BME280;64701;43.536;1.478;2023-06-22T05:06:50;99528.00;;;20.10;100.00
76011;BME280;64701;43.536;1.478;2023-06-22T05:09:15;99518.88;;;20.11;100.00
76011;BME280;64701;43.536;1.478;2023-06-22T05:11:41;99515.69;;;20.14;100.00
76011;BME280;64701;43.536;1.478;2023-06-22T05:14:06;99517.03;;;20.16;100.00
76011;BME280;64701;43.536;1.478;2023-06-22T05:16:32;99511.41;;;20.18;100.00
76011;BME280;64701;43.536;1.478;2023-06-22T05:18:57;99513.84;;;20.19;100.00
76011;BME280;64701;43.536;1.478;2023-06-22T05:21:23;99515.22;;;20.22;100.00
76011;BME280;64701;43.536;1.478;2023-06-22T05:23:49;99526.53;;;20.24;100.00
76011;BME280;64701;43.536;1.478;2023-06-22T05:26:15;99530.09;;;20.29;100.00
76011;BME280;64701;43.536;1.478;2023-06-22T05:28:40;99534.72;;;20.34;100.00
76011;BME280;64701;43.536;1.478;2023-06-22T05:31:05;99542.28;;;20.37;100.00
76011;BME280;64701;43.536;1.478;2023-06-22T05:33:30;99544.47;;;20.40;100.00
76011;BME280;64701;43.536;1.478;2023-06-22T05:35:56;99549.06;;;20.45;99.43
76011;BME280;64701;43.536;1.478;2023-06-22T05:38:21;99551.78;;;20.50;99.15
76011;BME280;64701;43.536;1.478;2023-06-22T05:40:46;99551.31;;;20.53;99.60
76011;BME280;64701;43.536;1.478;2023-06-22T05:43:12;99557.50;;;20.53;99.54
76011;BME280;64701;43.536;1.478;2023-06-22T05:45:37;99564.50;;;20.54;99.68
76011;BME280;64701;43.536;1.478;2023-06-22T05:48:02;99576.91;;;20.55;99.16
76011;BME280;64701;43.536;1.478;2023-06-22T05:50:28;99573.63;;;20.53;99.69
76011;BME280;64701;43.536;1.478;2023-06-22T05:52:53;99578.50;;;20.56;99.43
76011;BME280;64701;43.536;1.478;2023-06-22T05:55:18;99585.25;;;20.59;99.43
76011;BME280;64701;43.536;1.478;2023-06-22T05:57:44;99581.50;;;20.60;99.66
76011;BME280;64701;43.536;1.478;2023-06-22T06:00:09;99580.44;;;20.61;99.63
76011;BME280;64701;43.536;1.478;2023-06-22T06:02:36;99585.81;;;20.61;99.87
76011;BME280;64701;43.536;1.478;2023-06-22T06:05:01;99588.50;;;20.61;99.44
76011;BME280;64701;43.536;1.478;2023-06-22T06:07:28;99591.19;;;20.61;99.32
76011;BME280;64701;43.536;1.478;2023-06-22T06:09:54;99594.63;;;20.56;100.00
76011;BME280;64701;43.536;1.478;2023-06-22T06:12:19;99602.66;;;20.51;100.00
76011;BME280;64701;43.536;1.478;2023-06-22T06:14:44;99600.28;;;20.55;100.00
76011;BME280;64701;43.536;1.478;2023-06-22T06:17:09;99600.59;;;20.58;100.00
76011;BME280;64701;43.536;1.478;2023-06-22T06:19:35;99600.88;;;20.62;100.00
76011;BME280;64701;43.536;1.478;2023-06-22T06:22:00;99604.69;;;20.66;99.82
76011;BME280;64701;43.536;1.478;2023-06-22T06:24:26;99601.53;;;20.74;99.62
76011;BME280;64701;43.536;1.478;2023-06-22T06:26:51;99606.16;;;20.78;99.80
76011;BME280;64701;43.536;1.478;2023-06-22T06:29:16;99612.06;;;20.81;99.79
76011;BME280;64701;43.536;1.478;2023-06-22T06:31:41;99614.03;;;20.85;99.33
76011;BME280;64701;43.536;1.478;2023-06-22T06:34:07;99615.94;;;20.90;99.00
76011;BME280;64701;43.536;1.478;2023-06-22T06:36:32;99617.81;;;20.89;98.58
76011;BME280;64701;43.536;1.478;2023-06-22T06:38:57;99624.56;;;20.92;98.66
76011;BME280;64701;43.536;1.478;2023-06-22T06:41:23;99628.28;;;20.86;98.69
76011;BME280;64701;43.536;1.478;2023-06-22T06:43:48;99630.47;;;20.89;98.81
76011;BME280;64701;43.536;1.478;2023-06-22T06:46:13;99638.50;;;20.84;98.88
76011;BME280;64701;43.536;1.478;2023-06-22T06:48:39;99637.97;;;20.87;98.63
76011;BME280;64701;43.536;1.478;2023-06-22T06:51:05;99627.72;;;20.84;99.38
76011;BME280;64701;43.536;1.478;2023-06-22T06:53:30;99630.72;;;20.87;99.21
76011;BME280;64701;43.536;1.478;2023-06-22T06:55:55;99636.66;;;20.89;99.26
76011;BME280;64701;43.536;1.478;2023-06-22T06:58:21;99641.28;;;20.94;99.15
76011;BME280;64701;43.536;1.478;2023-06-22T07:00:48;99636.97;;;20.98;99.13
76011;BME280;64701;43.536;1.478;2023-06-22T07:03:13;99633.22;;;20.99;99.11
76011;BME280;64701;43.536;1.478;2023-06-22T07:05:39;99629.50;;;21.05;98.53
76011;BME280;64701;43.536;1.478;2023-06-22T07:08:04;99631.19;;;21.11;98.74
76011;BME280;64701;43.536;1.478;2023-06-22T07:10:29;99629.69;;;21.20;98.65
76011;BME280;64701;43.536;1.478;2023-06-22T07:12:55;99635.13;;;21.30;97.99
76011;BME280;64701;43.536;1.478;2023-06-22T07:15:20;99640.28;;;21.37;97.70
76011;BME280;64701;43.536;1.478;2023-06-22T07:17:45;99649.72;;;21.39;97.84
76011;BME280;64701;43.536;1.478;2023-06-22T07:20:10;99649.78;;;21.44;97.36
76011;BME280;64701;43.536;1.478;2023-06-22T07:22:39;99654.13;;;21.50;97.45
76011;BME280;64701;43.536;1.478;2023-06-22T07:25:05;99659.28;;;21.57;96.78
76011;BME280;64701;43.536;1.478;2023-06-22T07:27:44;99666.06;;;21.65;96.46
76011;BME280;64701;43.536;1.478;2023-06-22T07:30:10;99659.59;;;21.66;96.13
76011;BME280;64701;43.536;1.478;2023-06-22T07:32:35;99654.22;;;21.66;95.36
76011;BME280;64701;43.536;1.478;2023-06-22T07:35:01;99665.56;;;21.68;94.96
76011;BME280;64701;43.536;1.478;2023-06-22T07:37:27;99665.03;;;21.71;94.57
76011;BME280;64701;43.536;1.478;2023-06-22T07:39:53;99668.31;;;21.78;94.73
76011;BME280;64701;43.536;1.478;2023-06-22T07:42:23;99674.75;;;21.77;94.63
76011;BME280;64701;43.536;1.478;2023-06-22T07:44:48;99669.31;;;21.67;93.59
76011;BME280;64701;43.536;1.478;2023-06-22T07:47:13;99675.22;;;21.64;92.17
76011;BME280;64701;43.536;1.478;2023-06-22T07:49:38;99677.16;;;21.68;92.03
76011;BME280;64701;43.536;1.478;2023-06-22T07:52:04;99677.22;;;21.78;92.39
76011;BME280;64701;43.536;1.478;2023-06-22T07:54:30;99669.41;;;21.87;92.02
76011;BME280;64701;43.536;1.478;2023-06-22T07:56:55;99674.53;;;21.83;90.42
76011;BME280;64701;43.536;1.478;2023-06-22T07:59:20;99683.78;;;21.92;90.10
76011;BME280;64701;43.536;1.478;2023-06-22T08:01:45;99686.28;;;22.04;88.82
76011;BME280;64701;43.536;1.478;2023-06-22T08:04:14;99684.66;;;22.03;86.94
76011;BME280;64701;43.536;1.478;2023-06-22T08:06:39;99688.16;;;22.04;86.73
76011;BME280;64701;43.536;1.478;2023-06-22T08:09:04;99689.75;;;22.05;84.80
76011;BME280;64701;43.536;1.478;2023-06-22T08:11:29;99693.16;;;21.85;83.42
76011;BME280;64701;43.536;1.478;2023-06-22T08:13:55;99698.53;;;21.85;83.94
76011;BME280;64701;43.536;1.478;2023-06-22T08:16:20;99692.63;;;21.88;84.26
76011;BME280;64701;43.536;1.478;2023-06-22T08:18:46;99687.59;;;22.02;84.26
76011;BME280;64701;43.536;1.478;2023-06-22T08:21:11;99687.88;;;22.05;82.84
76011;BME280;64701;43.536;1.478;2023-06-22T08:23:36;99693.06;;;22.17;83.50
76011;BME280;64701;43.536;1.478;2023-06-22T08:26:01;99696.63;;;22.22;84.38
76011;BME280;64701;43.536;1.478;2023-06-22T08:28:27;99703.94;;;22.32;83.69
76011;BME280;64701;43.536;1.478;2023-06-22T08:30:52;99702.88;;;22.38;82.60
76011;BME280;64701;43.536;1.478;2023-06-22T08:33:17;99708.53;;;22.42;82.25
76011;BME280;64701;43.536;1.478;2023-06-22T08:35:42;99707.47;;;22.37;81.75
76011;BME280;64701;43.536;1.478;2023-06-22T08:38:08;99708.53;;;22.36;82.02
76011;BME280;64701;43.536;1.478;2023-06-22T08:40:34;99712.88;;;22.48;82.89
76011;BME280;64701;43.536;1.478;2023-06-22T08:42:59;99717.44;;;22.42;83.24
76011;BME280;64701;43.536;1.478;2023-06-22T08:45:24;99725.03;;;22.40;83.28
76011;BME280;64701;43.536;1.478;2023-06-22T08:47:49;99728.47;;;22.30;83.30
76011;BME280;64701;43.536;1.478;2023-06-22T08:50:15;99733.84;;;22.30;82.92
76011;BME280;64701;43.536;1.478;2023-06-22T08:52:40;99735.16;;;22.18;83.65
76011;BME280;64701;43.536;1.478;2023-06-22T08:55:08;99742.34;;;22.02;84.32
76011;BME280;64701;43.536;1.478;2023-06-22T08:57:34;99748.25;;;21.99;85.03
76011;BME280;64701;43.536;1.478;2023-06-22T08:59:59;99758.94;;;21.89;85.63
76011;BME280;64701;43.536;1.478;2023-06-22T09:02:25;99761.09;;;21.87;86.05
76011;BME280;64701;43.536;1.478;2023-06-22T09:04:50;99763.75;;;21.82;87.23
76011;BME280;64701;43.536;1.478;2023-06-22T09:07:20;99770.31;;;21.59;87.80
76011;BME280;64701;43.536;1.478;2023-06-22T09:09:47;99782.94;;;21.53;89.05
76011;BME280;64701;43.536;1.478;2023-06-22T09:12:12;99781.88;;;21.54;89.33
76011;BME280;64701;43.536;1.478;2023-06-22T09:14:38;99782.13;;;21.53;90.05
76011;BME280;64701;43.536;1.478;2023-06-22T09:17:03;99782.47;;;21.62;89.73
76011;BME280;64701;43.536;1.478;2023-06-22T09:19:28;99779.56;;;21.68;89.75
76011;BME280;64701;43.536;1.478;2023-06-22T09:21:54;99780.91;;;21.71;90.39
76011;BME280;64701;43.536;1.478;2023-06-22T09:24:19;99785.47;;;21.65;90.10
76011;BME280;64701;43.536;1.478;2023-06-22T09:26:44;99786.25;;;21.61;90.60
76011;BME280;64701;43.536;1.478;2023-06-22T09:29:09;99785.69;;;21.58;90.96
76011;BME280;64701;43.536;1.478;2023-06-22T09:31:35;99785.78;;;21.69;90.77
76011;BME280;64701;43.536;1.478;2023-06-22T09:34:00;99787.38;;;21.70;90.84
76011;BME280;64701;43.536;1.478;2023-06-22T09:36:25;99785.22;;;21.67;90.47
76011;BME280;64701;43.536;1.478;2023-06-22T09:38:50;99782.59;;;21.77;90.32
76011;BME280;64701;43.536;1.478;2023-06-22T09:41:20;99798.78;;;21.82;89.99
76011;BME280;64701;43.536;1.478;2023-06-22T09:43:46;99795.59;;;21.85;89.73
76011;BME280;64701;43.536;1.478;2023-06-22T09:46:12;99796.00;;;21.98;89.86
76011;BME280;64701;43.536;1.478;2023-06-22T09:48:37;99797.59;;;21.99;90.49
76011;BME280;64701;43.536;1.478;2023-06-22T09:51:03;99791.53;;;22.19;89.68
76011;BME280;64701;43.536;1.478;2023-06-22T09:53:28;99793.13;;;22.15;88.96
76011;BME280;64701;43.536;1.478;2023-06-22T09:55:53;99797.53;;;22.26;87.85
76011;BME280;64701;43.536;1.478;2023-06-22T09:58:18;99796.38;;;22.17;88.27
76011;BME280;64701;43.536;1.478;2023-06-22T10:00:44;99791.06;;;22.27;89.03
76011;BME280;64701;43.536;1.478;2023-06-22T10:03:09;99791.66;;;22.39;88.99
76011;BME280;64701;43.536;1.478;2023-06-22T10:05:34;99796.00;;;22.46;87.94
76011;BME280;64701;43.536;1.478;2023-06-22T10:07:59;99796.28;;;22.49;87.77
76011;BME280;64701;43.536;1.478;2023-06-22T10:10:25;99793.91;;;22.58;87.91
76011;BME280;64701;43.536;1.478;2023-06-22T10:12:57;99802.59;;;22.70;87.47
76011;BME280;64701;43.536;1.478;2023-06-22T10:15:23;99800.69;;;22.70;86.56
76011;BME280;64701;43.536;1.478;2023-06-22T10:17:48;99803.72;;;22.79;85.81
76011;BME280;64701;43.536;1.478;2023-06-22T10:20:14;99803.75;;;22.94;87.33
76011;BME280;64701;43.536;1.478;2023-06-22T10:22:40;99796.81;;;23.13;88.34
76011;BME280;64701;43.536;1.478;2023-06-22T10:25:06;99804.41;;;23.32;86.10
76011;BME280;64701;43.536;1.478;2023-06-22T10:27:31;99801.22;;;23.55;84.89
76011;BME280;64701;43.536;1.478;2023-06-22T10:29:57;99803.94;;;23.65;83.36
76011;BME280;64701;43.536;1.478;2023-06-22T10:32:22;99803.66;;;23.82;81.90
76011;BME280;64701;43.536;1.478;2023-06-22T10:34:47;99806.09;;;23.93;79.69
76011;BME280;64701;43.536;1.478;2023-06-22T10:37:12;99801.72;;;24.02;79.13
76011;BME280;64701;43.536;1.478;2023-06-22T10:39:38;99798.47;;;24.16;78.55
76011;BME280;64701;43.536;1.478;2023-06-22T10:42:03;99806.59;;;24.21;80.06
76011;BME280;64701;43.536;1.478;2023-06-22T10:44:28;99809.84;;;24.23;78.87
76011;BME280;64701;43.536;1.478;2023-06-22T10:46:54;99812.53;;;24.28;76.82
76011;BME280;64701;43.536;1.478;2023-06-22T10:49:19;99817.94;;;24.33;77.49
76011;BME280;64701;43.536;1.478;2023-06-22T10:51:44;99820.66;;;24.28;76.16
76011;BME280;64701;43.536;1.478;2023-06-22T10:54:09;99819.59;;;24.29;77.66
76011;BME280;64701;43.536;1.478;2023-06-22T10:56:35;99823.91;;;24.30;76.43
76011;BME280;64701;43.536;1.478;2023-06-22T10:59:00;99827.13;;;24.47;78.38
76011;BME280;64701;43.536;1.478;2023-06-22T11:01:26;99828.69;;;24.58;76.52
76011;BME280;64701;43.536;1.478;2023-06-22T11:03:55;99823.81;;;24.65;74.64
76011;BME280;64701;43.536;1.478;2023-06-22T11:06:20;99826.97;;;24.88;76.81
76011;BME280;64701;43.536;1.478;2023-06-22T11:08:45;99820.16;;;25.00;74.37
76011;BME280;64701;43.536;1.478;2023-06-22T11:11:10;99816.03;;;25.13;71.31
76011;BME280;64701;43.536;1.478;2023-06-22T11:13:36;99819.28;;;25.10;69.29
76011;BME280;64701;43.536;1.478;2023-06-22T11:16:01;99818.47;;;25.09;71.04
76011;BME280;64701;43.536;1.478;2023-06-22T11:18:26;99831.03;;;24.95;68.03
76011;BME280;64701;43.536;1.478;2023-06-22T11:20:51;99820.50;;;24.89;68.29
76011;BME280;64701;43.536;1.478;2023-06-22T11:23:18;99825.28;;;25.07;71.87
76011;BME280;64701;43.536;1.478;2023-06-22T11:25:44;99824.66;;;25.20;70.13
76011;BME280;64701;43.536;1.478;2023-06-22T11:28:09;99822.00;;;25.10;65.72
76011;BME280;64701;43.536;1.478;2023-06-22T11:30:34;99821.69;;;25.16;68.88
76011;BME280;64701;43.536;1.478;2023-06-22T11:33:00;99828.97;;;25.26;70.68
76011;BME280;64701;43.536;1.478;2023-06-22T11:35:25;99817.53;;;25.29;69.64
76011;BME280;64701;43.536;1.478;2023-06-22T11:37:50;99814.59;;;25.20;67.93
76011;BME280;64701;43.536;1.478;2023-06-22T11:40:16;99819.84;;;25.07;68.47
76011;BME280;64701;43.536;1.478;2023-06-22T11:42:42;99817.16;;;25.07;69.99
76011;BME280;64701;43.536;1.478;2023-06-22T11:45:07;99817.47;;;24.95;68.83
76011;BME280;64701;43.536;1.478;2023-06-22T11:47:33;99828.84;;;24.92;68.79
76011;BME280;64701;43.536;1.478;2023-06-22T11:49:58;99827.53;;;24.85;70.67
76011;BME280;64701;43.536;1.478;2023-06-22T11:52:23;99828.28;;;25.00;71.99
76011;BME280;64701;43.536;1.478;2023-06-22T11:54:49;99827.91;;;25.17;72.37
76011;BME280;64701;43.536;1.478;2023-06-22T11:57:14;99826.25;;;25.26;70.91
76011;BME280;64701;43.536;1.478;2023-06-22T11:59:39;99825.66;;;25.34;70.82
76011;BME280;64701;43.536;1.478;2023-06-22T12:02:05;99834.25;;;25.46;71.01
76011;BME280;64701;43.536;1.478;2023-06-22T12:04:32;99827.69;;;25.52;69.86
76011;BME280;64701;43.536;1.478;2023-06-22T12:06:58;99820.84;;;25.65;72.11
76011;BME280;64701;43.536;1.478;2023-06-22T12:09:23;99815.53;;;25.84;73.41
76011;BME280;64701;43.536;1.478;2023-06-22T12:11:48;99806.06;;;26.10;73.54
76011;BME280;64701;43.536;1.478;2023-06-22T12:14:14;99802.63;;;26.28;71.07
76011;BME280;64701;43.536;1.478;2023-06-22T12:16:39;99810.75;;;26.57;73.84
76011;BME280;64701;43.536;1.478;2023-06-22T12:19:04;99800.22;;;26.74;70.58
76011;BME280;64701;43.536;1.478;2023-06-22T12:21:29;99791.13;;;26.84;68.04
76011;BME280;64701;43.536;1.478;2023-06-22T12:23:55;99799.69;;;26.96;64.89
76011;BME280;64701;43.536;1.478;2023-06-22T12:26:20;99798.59;;;26.97;61.49
76011;BME280;64701;43.536;1.478;2023-06-22T12:28:46;99792.13;;;26.93;59.59
76011;BME280;64701;43.536;1.478;2023-06-22T12:31:12;99800.78;;;26.95;60.68
76011;BME280;64701;43.536;1.478;2023-06-22T12:33:37;99802.84;;;27.03;63.35
76011;BME280;64701;43.536;1.478;2023-06-22T12:36:03;99800.78;;;26.95;63.07
76011;BME280;64701;43.536;1.478;2023-06-22T12:38:29;99810.63;;;26.67;62.35
76011;BME280;64701;43.536;1.478;2023-06-22T12:40:55;99810.09;;;26.41;60.68
76011;BME280;64701;43.536;1.478;2023-06-22T12:43:20;99821.84;;;26.08;62.20
76011;BME280;64701;43.536;1.478;2023-06-22T12:45:45;99826.94;;;25.86;62.96
76011;BME280;64701;43.536;1.478;2023-06-22T12:48:11;99831.22;;;25.92;64.43
76011;BME280;64701;43.536;1.478;2023-06-22T12:50:37;99819.94;;;25.75;64.63
76011;BME280;64701;43.536;1.478;2023-06-22T12:53:03;99832.03;;;25.53;64.14
76011;BME280;64701;43.536;1.478;2023-06-22T12:55:29;99838.53;;;25.52;66.20
76011;BME280;64701;43.536;1.478;2023-06-22T12:57:54;99837.81;;;25.42;66.68
76011;BME280;64701;43.536;1.478;2023-06-22T13:00:19;99835.94;;;25.37;66.52